createdAt,value
2018-09-09T00:00:41.498Z,59.00
2018-09-09T00:03:11.191Z,59.32
2018-09-09T00:05:40.913Z,59.03
2018-09-09T00:08:10.670Z,59.38
2018-09-09T00:10:40.437Z,58.88
2018-09-09T00:13:10.186Z,58.59
2018-09-09T00:15:39.894Z,58.95
2018-09-09T00:18:09.810Z,59.32
2018-09-09T00:20:39.489Z,59.05
2018-09-09T00:23:09.209Z,59.28
2018-09-09T00:25:38.939Z,59.07
2018-09-09T00:28:08.693Z,58.96
2018-09-09T00:30:38.402Z,59.00
2018-09-09T00:33:08.106Z,59.70
2018-09-09T00:35:37.740Z,59.67
2018-09-09T00:38:07.613Z,59.32
2018-09-09T00:40:37.313Z,59.20
2018-09-09T00:43:07.190Z,59.46
2018-09-09T00:45:36.904Z,59.13
2018-09-09T00:48:06.676Z,58.79
2018-09-09T00:50:41.474Z,59.20
2018-09-09T00:53:16.449Z,59.47
2018-09-09T00:55:46.114Z,59.43
2018-09-09T00:58:15.859Z,59.20
2018-09-09T01:00:50.845Z,59.49
2018-09-09T01:03:20.617Z,59.28
2018-09-09T01:05:50.543Z,58.86
2018-09-09T01:08:19.976Z,59.00
2018-09-09T01:10:49.399Z,58.97
2018-09-09T01:13:18.875Z,58.73
2018-09-09T01:15:48.260Z,59.12
2018-09-09T01:18:17.688Z,58.39
2018-09-09T01:20:47.091Z,58.45
2018-09-09T01:23:16.495Z,58.94
2018-09-09T01:25:46.054Z,59.32
2018-09-09T01:28:15.656Z,59.15
2018-09-09T01:30:45.060Z,58.92
2018-09-09T01:33:14.464Z,58.63
2018-09-09T01:35:43.875Z,58.36
2018-09-09T01:38:13.299Z,58.84
2018-09-09T01:40:42.707Z,58.61
2018-09-09T01:43:12.127Z,58.82
2018-09-09T01:45:41.520Z,58.41
2018-09-09T01:48:10.925Z,58.72
2018-09-09T01:50:40.323Z,58.66
2018-09-09T01:53:09.793Z,57.78
2018-09-09T01:55:39.179Z,57.83
2018-09-09T01:58:08.641Z,57.67
2018-09-09T02:00:38.021Z,57.30
2018-09-09T02:03:07.432Z,57.67
2018-09-09T02:05:36.840Z,57.73
2018-09-09T02:08:06.211Z,57.34
2018-09-09T02:10:35.672Z,57.26
2018-09-09T02:13:05.054Z,56.85
2018-09-09T02:15:34.535Z,56.37
2018-09-09T02:18:03.923Z,56.18
2018-09-09T02:20:33.316Z,56.70
2018-09-09T02:23:02.688Z,56.44
2018-09-09T02:25:32.084Z,56.29
2018-09-09T02:28:01.471Z,55.84
2018-09-09T02:30:30.880Z,55.34
2018-09-09T02:33:00.290Z,55.28
2018-09-09T02:35:29.655Z,55.46
2018-09-09T02:37:59.048Z,54.96
2018-09-09T02:40:28.647Z,54.93
2018-09-09T02:42:58.061Z,55.23
2018-09-09T02:45:27.471Z,55.68
2018-09-09T02:47:57.107Z,55.58
2018-09-09T02:50:26.505Z,55.38
2018-09-09T02:52:55.869Z,55.42
2018-09-09T02:55:25.293Z,55.81
2018-09-09T02:57:54.664Z,55.63
2018-09-09T03:00:24.038Z,55.54
2018-09-09T03:02:53.433Z,55.71
2018-09-09T03:05:22.842Z,55.66
2018-09-09T03:07:52.239Z,55.82
2018-09-09T03:10:21.640Z,55.59
2018-09-09T03:12:51.030Z,55.47
2018-09-09T03:15:20.437Z,55.37
2018-09-09T03:17:49.855Z,55.16
2018-09-09T03:20:19.232Z,55.79
2018-09-09T03:22:48.658Z,55.23
2018-09-09T03:25:18.048Z,55.46
2018-09-09T03:27:47.529Z,54.98
2018-09-09T03:30:16.916Z,55.09
2018-09-09T03:32:46.319Z,55.65
2018-09-09T03:35:15.695Z,54.97
2018-09-09T03:37:45.071Z,54.76
2018-09-09T03:40:14.467Z,55.04
2018-09-09T03:42:43.829Z,55.19
2018-09-09T03:45:13.207Z,55.06
2018-09-09T03:47:42.629Z,55.36
2018-09-09T03:50:11.992Z,54.71
2018-09-09T03:52:41.388Z,55.17
2018-09-09T03:55:10.936Z,55.05
2018-09-09T03:57:40.303Z,55.32
2018-09-09T04:00:09.703Z,54.78
2018-09-09T04:02:39.104Z,54.88
2018-09-09T04:05:08.496Z,54.83
2018-09-09T04:07:38.172Z,55.33
2018-09-09T04:10:07.877Z,55.13
2018-09-09T04:12:37.255Z,54.94
2018-09-09T04:15:06.835Z,55.07
2018-09-09T04:17:36.270Z,55.62
2018-09-09T04:20:05.663Z,55.58
2018-09-09T04:22:35.145Z,55.76
2018-09-09T04:25:04.559Z,56.77
2018-09-09T04:27:33.938Z,56.92
2018-09-09T04:30:03.352Z,56.67
2018-09-09T04:32:32.805Z,56.88
2018-09-09T04:35:02.285Z,57.33
2018-09-09T04:37:31.765Z,58.10
2018-09-09T04:40:01.315Z,57.46
2018-09-09T04:42:31.291Z,57.72
2018-09-09T04:45:00.684Z,57.78
2018-09-09T04:47:30.092Z,57.96
2018-09-09T04:49:59.479Z,58.45
2018-09-09T04:52:28.851Z,58.46
2018-09-09T04:54:58.246Z,58.51
2018-09-09T04:57:27.711Z,58.27
2018-09-09T04:59:57.100Z,58.80
2018-09-09T05:02:26.480Z,58.37
2018-09-09T05:04:55.996Z,58.42
2018-09-09T05:07:25.404Z,58.42
2018-09-09T05:09:54.780Z,58.37
2018-09-09T05:12:24.208Z,58.43
2018-09-09T05:14:53.577Z,57.94
2018-09-09T05:17:23.143Z,57.33
2018-09-09T05:19:52.584Z,57.11
2018-09-09T05:22:21.972Z,56.98
2018-09-09T05:24:51.368Z,56.57
2018-09-09T05:27:20.741Z,56.50
2018-09-09T05:29:50.195Z,56.63
2018-09-09T05:32:19.608Z,56.80
2018-09-09T05:34:49.011Z,56.52
2018-09-09T05:37:18.376Z,56.40
2018-09-09T05:39:47.751Z,56.08
2018-09-09T05:42:17.213Z,56.26
2018-09-09T05:44:46.550Z,56.67
2018-09-09T05:47:16.115Z,56.44
2018-09-09T05:49:45.500Z,56.27
2018-09-09T05:52:14.872Z,56.64
2018-09-09T05:54:44.339Z,56.19
2018-09-09T05:57:13.706Z,55.58
2018-09-09T05:59:43.090Z,56.01
2018-09-09T06:02:12.735Z,56.11
2018-09-09T06:04:42.120Z,55.45
2018-09-09T06:07:11.568Z,54.88
2018-09-09T06:09:40.984Z,55.57
2018-09-09T06:12:10.445Z,55.10
2018-09-09T06:14:39.852Z,54.96
2018-09-09T06:17:09.320Z,54.39
2018-09-09T06:19:38.696Z,53.90
2018-09-09T06:22:08.091Z,54.11
2018-09-09T06:24:37.479Z,54.39
2018-09-09T06:27:13.366Z,53.29
2018-09-09T06:29:42.755Z,53.03
2018-09-09T06:32:12.155Z,52.85
2018-09-09T06:34:41.598Z,52.81
2018-09-09T06:37:11.240Z,52.89
2018-09-09T06:39:40.637Z,51.98
2018-09-09T06:42:10.087Z,52.18
2018-09-09T06:44:39.516Z,52.08
2018-09-09T06:47:08.897Z,50.96
2018-09-09T06:49:38.317Z,51.75
2018-09-09T06:52:07.743Z,51.93
2018-09-09T06:54:37.112Z,51.51
2018-09-09T06:57:06.628Z,51.02
2018-09-09T06:59:36.168Z,51.18
2018-09-09T07:02:05.635Z,50.41
2018-09-09T07:04:35.056Z,49.60
2018-09-09T07:07:04.696Z,49.61
2018-09-09T07:09:34.146Z,49.03
2018-09-09T07:12:03.599Z,47.86
2018-09-09T07:14:33.099Z,47.91
2018-09-09T07:17:02.537Z,46.85
2018-09-09T07:19:31.876Z,46.94
2018-09-09T07:22:01.415Z,45.63
2018-09-09T07:24:30.788Z,44.57
2018-09-09T07:27:00.156Z,44.15
2018-09-09T07:29:29.571Z,42.55
2018-09-09T07:31:58.956Z,40.66
2018-09-09T07:34:28.330Z,39.33
2018-09-09T07:36:57.758Z,36.38
2018-09-09T07:39:27.183Z,35.71
2018-09-09T07:41:56.551Z,33.62
2018-09-09T07:44:26.152Z,32.61
2018-09-09T07:46:55.523Z,31.65
2018-09-09T07:49:24.947Z,31.35
2018-09-09T07:51:54.343Z,29.23
2018-09-09T07:54:23.757Z,28.39
2018-09-09T07:56:53.135Z,27.34
2018-09-09T07:59:22.540Z,27.13
2018-09-09T08:01:51.927Z,26.71
2018-09-09T08:04:21.319Z,26.62
2018-09-09T08:06:51.184Z,25.95
2018-09-09T08:09:21.041Z,26.37
2018-09-09T08:11:50.463Z,27.00
2018-09-09T08:14:20.120Z,25.92
2018-09-09T08:16:49.548Z,25.71
2018-09-09T08:19:19.036Z,23.95
2018-09-09T08:21:48.584Z,23.62
2018-09-09T08:24:18.037Z,23.21
2018-09-09T08:26:47.421Z,22.07
2018-09-09T08:29:16.947Z,21.13
2018-09-09T08:31:46.421Z,20.80
2018-09-09T08:34:15.844Z,20.36
2018-09-09T08:36:45.456Z,19.83
2018-09-09T08:39:14.864Z,19.17
2018-09-09T08:41:44.448Z,18.56
2018-09-09T08:44:14.017Z,17.91
2018-09-09T08:46:43.495Z,17.38
2018-09-09T08:49:12.942Z,17.23
2018-09-09T08:51:42.415Z,17.02
2018-09-09T08:54:11.823Z,16.24
2018-09-09T08:56:41.285Z,15.68
2018-09-09T08:59:10.775Z,15.90
2018-09-09T09:01:40.228Z,15.92
2018-09-09T09:04:09.688Z,15.93
2018-09-09T09:06:39.283Z,15.53
2018-09-09T09:09:10.460Z,15.55
2018-09-09T09:11:40.000Z,15.64
2018-09-09T09:14:09.436Z,15.79
2018-09-09T09:16:38.849Z,15.47
2018-09-09T09:19:08.281Z,15.55
2018-09-09T09:21:37.700Z,15.58
2018-09-09T09:24:07.252Z,14.70
2018-09-09T09:26:36.708Z,15.06
2018-09-09T09:29:06.221Z,14.62
2018-09-09T09:31:35.623Z,15.19
2018-09-09T09:34:05.295Z,15.18
2018-09-09T09:36:34.745Z,15.02
2018-09-09T09:39:05.064Z,15.23
2018-09-09T09:41:34.513Z,14.83
2018-09-09T09:44:03.958Z,15.45
2018-09-09T09:46:33.383Z,15.19
2018-09-09T09:49:02.815Z,14.93
2018-09-09T09:51:32.392Z,15.02
2018-09-09T09:54:02.001Z,15.15
2018-09-09T09:56:31.579Z,15.28
2018-09-09T09:59:01.090Z,15.38
2018-09-09T10:01:30.577Z,15.17
2018-09-09T10:04:00.027Z,15.52
2018-09-09T10:06:29.501Z,15.47
2018-09-09T10:08:59.040Z,15.26
2018-09-09T10:11:28.543Z,15.59
2018-09-09T10:13:58.025Z,15.76
2018-09-09T10:16:27.447Z,15.80
2018-09-09T10:18:57.004Z,15.17
2018-09-09T10:21:26.408Z,15.67
2018-09-09T10:23:55.992Z,15.59
2018-09-09T10:26:25.346Z,16.47
2018-09-09T10:28:54.793Z,16.55
2018-09-09T10:31:24.232Z,16.82
2018-09-09T10:33:53.724Z,17.06
2018-09-09T10:36:23.281Z,17.49
2018-09-09T10:38:52.711Z,17.33
2018-09-09T10:41:22.430Z,18.24
2018-09-09T10:43:51.929Z,18.49
2018-09-09T10:46:21.445Z,18.84
2018-09-09T10:48:50.732Z,19.15
2018-09-09T10:51:20.143Z,18.96
2018-09-09T10:53:49.610Z,20.11
2018-09-09T10:56:19.077Z,20.40
2018-09-09T10:58:48.538Z,20.64
2018-09-09T11:01:18.096Z,20.58
2018-09-09T11:03:47.695Z,19.88
2018-09-09T11:06:17.145Z,20.91
2018-09-09T11:08:46.573Z,21.39
2018-09-09T11:11:16.031Z,21.59
2018-09-09T11:13:45.511Z,22.31
2018-09-09T11:16:14.927Z,22.75
2018-09-09T11:18:44.434Z,22.22
2018-09-09T11:21:13.835Z,22.68
2018-09-09T11:23:43.556Z,24.22
2018-09-09T11:26:13.016Z,24.22
2018-09-09T11:28:42.459Z,24.28
2018-09-09T11:31:11.847Z,25.13
2018-09-09T11:33:41.261Z,25.81
2018-09-09T11:36:10.697Z,25.80
2018-09-09T11:38:40.093Z,25.61
2018-09-09T11:41:09.499Z,26.94
2018-09-09T11:43:38.971Z,26.36
2018-09-09T11:46:09.015Z,27.58
2018-09-09T11:48:38.442Z,27.18
2018-09-09T11:51:08.040Z,27.70
2018-09-09T11:53:37.433Z,28.01
2018-09-09T11:56:07.629Z,28.65
2018-09-09T11:58:37.067Z,28.84
2018-09-09T12:01:06.488Z,28.70
2018-09-09T12:03:35.933Z,28.46
2018-09-09T12:06:05.420Z,29.16
2018-09-09T12:08:34.844Z,29.37
2018-09-09T12:11:04.304Z,29.35
2018-09-09T12:13:33.940Z,29.10
2018-09-09T12:16:03.382Z,29.94
2018-09-09T12:18:33.074Z,29.23
2018-09-09T12:21:02.543Z,29.33
2018-09-09T12:23:32.017Z,29.33
2018-09-09T12:26:01.412Z,29.34
2018-09-09T12:28:30.852Z,29.35
2018-09-09T12:31:00.255Z,30.13
2018-09-09T12:33:29.734Z,30.00
2018-09-09T12:35:59.140Z,30.23
2018-09-09T12:38:28.540Z,29.35
2018-09-09T12:40:57.965Z,29.56
2018-09-09T12:43:32.705Z,30.04
2018-09-09T12:46:07.457Z,29.37
2018-09-09T12:48:42.233Z,29.69
2018-09-09T12:51:11.691Z,29.01
2018-09-09T12:53:41.062Z,29.13
2018-09-09T12:56:17.295Z,29.63
2018-09-09T12:58:46.773Z,29.78
2018-09-09T13:01:16.924Z,28.58
2018-09-09T13:03:46.389Z,28.39
2018-09-09T13:06:15.810Z,28.41
2018-09-09T13:08:45.268Z,28.51
2018-09-09T13:11:14.887Z,28.51
2018-09-09T13:13:44.329Z,28.54
2018-09-09T13:16:13.905Z,28.74
2018-09-09T13:18:43.537Z,28.87
2018-09-09T13:21:13.038Z,29.26
2018-09-09T13:23:42.532Z,28.87
2018-09-09T13:26:12.066Z,29.61
2018-09-09T13:28:41.588Z,29.84
2018-09-09T13:31:11.590Z,29.11
2018-09-09T13:33:41.146Z,29.13
2018-09-09T13:36:10.728Z,29.30
2018-09-09T13:38:40.232Z,29.44
2018-09-09T13:41:09.960Z,29.95
2018-09-09T13:43:39.519Z,30.34
2018-09-09T13:46:09.031Z,30.17
2018-09-09T13:48:38.620Z,29.54
2018-09-09T13:51:08.217Z,30.00
2018-09-09T13:53:37.713Z,29.55
2018-09-09T13:56:07.325Z,30.28
2018-09-09T13:58:36.743Z,30.12
2018-09-09T14:01:06.141Z,29.98
2018-09-09T14:03:35.596Z,29.62
2018-09-09T14:06:05.130Z,29.83
2018-09-09T14:08:34.585Z,29.92
2018-09-09T14:11:04.157Z,29.42
2018-09-09T14:13:33.568Z,29.70
2018-09-09T14:16:02.968Z,29.88
2018-09-09T14:18:32.383Z,29.66
2018-09-09T14:21:01.801Z,28.96
2018-09-09T14:23:31.319Z,29.01
2018-09-09T14:26:00.759Z,29.09
2018-09-09T14:28:30.132Z,29.39
2018-09-09T14:30:59.509Z,29.77
2018-09-09T14:33:28.973Z,28.83
2018-09-09T14:35:58.335Z,28.66
2018-09-09T14:38:28.002Z,29.24
2018-09-09T14:40:57.421Z,28.67
2018-09-09T14:43:26.837Z,28.34
2018-09-09T14:45:56.218Z,29.09
2018-09-09T14:48:25.691Z,29.17
2018-09-09T14:50:55.120Z,29.22
2018-09-09T14:53:24.529Z,29.14
2018-09-09T14:55:54.107Z,29.19
2018-09-09T14:58:23.539Z,28.62
2018-09-09T15:00:53.023Z,29.46
2018-09-09T15:03:22.961Z,29.67
2018-09-09T15:05:52.405Z,28.93
2018-09-09T15:08:21.793Z,28.95
2018-09-09T15:10:51.462Z,29.43
2018-09-09T15:13:20.855Z,29.07
2018-09-09T15:15:50.236Z,29.11
2018-09-09T15:18:19.741Z,29.53
2018-09-09T15:20:49.149Z,29.59
2018-09-09T15:23:18.575Z,30.13
2018-09-09T15:25:48.108Z,29.74
2018-09-09T15:28:17.612Z,29.53
2018-09-09T15:30:47.004Z,30.12
2018-09-09T15:33:19.490Z,30.02
2018-09-09T15:35:49.116Z,29.18
2018-09-09T15:38:18.672Z,30.07
2018-09-09T15:40:48.845Z,29.30
2018-09-09T15:43:18.518Z,30.08
2018-09-09T15:45:48.348Z,29.56
2018-09-09T15:48:18.355Z,29.59
2018-09-09T15:50:48.236Z,30.18
2018-09-09T15:53:18.422Z,29.62
2018-09-09T15:55:49.013Z,30.47
2018-09-09T15:58:19.487Z,29.92
2018-09-09T16:00:49.672Z,30.16
2018-09-09T16:03:19.297Z,29.95
2018-09-09T16:05:49.977Z,30.69
2018-09-09T16:08:19.620Z,30.42
2018-09-09T16:10:49.241Z,30.87
2018-09-09T16:13:19.152Z,31.01
2018-09-09T16:15:48.800Z,30.86
2018-09-09T16:18:18.493Z,30.29
2018-09-09T16:20:48.173Z,31.20
2018-09-09T16:23:17.873Z,31.37
2018-09-09T16:25:47.637Z,30.63
2018-09-09T16:28:17.197Z,31.63
2018-09-09T16:30:46.880Z,31.09
2018-09-09T16:33:16.398Z,31.60
2018-09-09T16:35:46.573Z,32.13
2018-09-09T16:38:18.031Z,32.27
2018-09-09T16:40:47.916Z,32.10
2018-09-09T16:43:17.715Z,32.11
2018-09-09T16:45:47.376Z,32.90
2018-09-09T16:48:17.027Z,32.69
2018-09-09T16:50:46.734Z,32.47
2018-09-09T16:53:16.564Z,33.46
2018-09-09T16:55:46.371Z,33.76
2018-09-09T16:58:16.151Z,33.92
2018-09-09T17:00:46.160Z,34.16
2018-09-09T17:03:15.891Z,33.83
2018-09-09T17:05:45.703Z,33.78
2018-09-09T17:08:15.564Z,33.94
2018-09-09T17:10:45.692Z,34.90
2018-09-09T17:13:15.710Z,35.34
2018-09-09T17:15:45.796Z,34.88
2018-09-09T17:18:15.841Z,35.94
2018-09-09T17:20:45.728Z,35.99
2018-09-09T17:23:15.447Z,35.88
2018-09-09T17:25:45.402Z,36.06
2018-09-09T17:28:14.985Z,36.19
2018-09-09T17:30:44.782Z,36.67
2018-09-09T17:33:14.490Z,37.63
2018-09-09T17:35:44.309Z,37.24
2018-09-09T17:38:13.992Z,38.16
2018-09-09T17:40:43.813Z,37.79
2018-09-09T17:43:13.687Z,38.25
2018-09-09T17:45:43.311Z,38.35
2018-09-09T17:48:12.951Z,38.45
2018-09-09T17:50:42.476Z,39.00
2018-09-09T17:53:12.106Z,39.73
2018-09-09T17:55:41.857Z,39.83
2018-09-09T17:58:11.377Z,40.29
2018-09-09T18:00:40.903Z,40.45
2018-09-09T18:03:10.780Z,40.01
2018-09-09T18:05:40.173Z,40.41
2018-09-09T18:08:09.819Z,40.65
2018-09-09T18:10:39.665Z,41.08
2018-09-09T18:13:09.253Z,41.29
2018-09-09T18:15:39.048Z,41.14
2018-09-09T18:18:08.757Z,41.54
2018-09-09T18:20:38.356Z,42.07
2018-09-09T18:23:08.199Z,41.99
2018-09-09T18:25:37.978Z,42.39
2018-09-09T18:28:07.996Z,42.13
2018-09-09T18:30:38.652Z,42.66
2018-09-09T18:33:09.239Z,43.11
2018-09-09T18:35:39.050Z,43.72
2018-09-09T18:38:09.002Z,43.34
2018-09-09T18:40:38.736Z,43.84
2018-09-09T18:43:08.506Z,43.43
2018-09-09T18:45:39.238Z,44.66
2018-09-09T18:48:08.973Z,44.44
2018-09-09T18:50:38.473Z,44.71
2018-09-09T18:53:08.506Z,45.34
2018-09-09T18:55:38.182Z,45.96
2018-09-09T18:58:07.995Z,45.67
2018-09-09T19:00:38.081Z,45.86
2018-09-09T19:03:08.028Z,46.43
2018-09-09T19:05:37.878Z,46.27
2018-09-09T19:08:07.708Z,46.80
2018-09-09T19:10:37.574Z,46.87
2018-09-09T19:13:07.186Z,47.42
2018-09-09T19:15:36.767Z,48.11
2018-09-09T19:18:06.693Z,48.11
2018-09-09T19:20:36.709Z,47.52
2018-09-09T19:23:06.678Z,48.29
2018-09-09T19:25:36.743Z,47.62
2018-09-09T19:28:06.784Z,48.06
2018-09-09T19:30:36.791Z,48.13
2018-09-09T19:33:07.475Z,48.47
2018-09-09T19:35:36.913Z,48.98
2018-09-09T19:38:06.326Z,49.08
2018-09-09T19:40:35.735Z,49.00
2018-09-09T19:43:05.316Z,49.02
2018-09-09T19:45:34.833Z,49.20
2018-09-09T19:48:04.244Z,49.42
2018-09-09T19:50:33.670Z,49.82
2018-09-09T19:53:03.359Z,50.22
2018-09-09T19:55:32.957Z,49.46
2018-09-09T19:58:02.534Z,50.08
2018-09-09T20:00:32.079Z,50.50
2018-09-09T20:03:01.744Z,50.54
2018-09-09T20:05:31.337Z,50.57
2018-09-09T20:08:00.988Z,50.66
2018-09-09T20:10:30.600Z,50.71
2018-09-09T20:13:00.119Z,51.16
2018-09-09T20:15:29.540Z,50.76
2018-09-09T20:17:58.952Z,50.58
2018-09-09T20:20:28.351Z,49.96
2018-09-09T20:22:58.025Z,49.69
2018-09-09T20:25:27.484Z,50.26
2018-09-09T20:27:56.959Z,50.57
2018-09-09T20:30:26.371Z,49.78
2018-09-09T20:32:55.832Z,50.03
2018-09-09T20:35:25.337Z,50.17
2018-09-09T20:37:54.788Z,49.41
2018-09-09T20:40:24.184Z,49.14
2018-09-09T20:42:53.578Z,49.08
2018-09-09T20:45:23.017Z,48.99
2018-09-09T20:47:52.556Z,50.30
2018-09-09T20:50:21.975Z,50.39
2018-09-09T20:52:51.608Z,50.76
2018-09-09T20:55:21.072Z,50.54
2018-09-09T20:57:50.555Z,50.29
2018-09-09T21:00:20.032Z,50.94
2018-09-09T21:02:49.440Z,50.54
2018-09-09T21:05:18.836Z,51.42
2018-09-09T21:07:48.315Z,51.37
2018-09-09T21:10:17.805Z,51.96
2018-09-09T21:12:47.260Z,51.88
2018-09-09T21:15:16.741Z,52.13
2018-09-09T21:17:46.161Z,51.84
2018-09-09T21:20:15.726Z,52.62
2018-09-09T21:22:45.141Z,52.21
2018-09-09T21:25:14.610Z,52.14
2018-09-09T21:27:44.060Z,52.41
2018-09-09T21:30:13.668Z,52.67
2018-09-09T21:32:43.080Z,52.19
2018-09-09T21:35:12.554Z,52.76
2018-09-09T21:37:42.046Z,52.78
2018-09-09T21:40:11.478Z,53.67
2018-09-09T21:42:41.010Z,53.28
2018-09-09T21:45:10.469Z,53.27
2018-09-09T21:47:39.913Z,53.41
2018-09-09T21:50:09.412Z,53.85
2018-09-09T21:52:38.857Z,53.76
2018-09-09T21:55:08.324Z,53.69
2018-09-09T21:57:37.744Z,53.55
2018-09-09T22:00:11.022Z,53.75
2018-09-09T22:02:42.036Z,54.55
2018-09-09T22:05:11.526Z,54.16
2018-09-09T22:07:41.038Z,54.32
2018-09-09T22:10:10.503Z,54.84
2018-09-09T22:12:40.002Z,54.75
2018-09-09T22:15:09.464Z,55.26
2018-09-09T22:18:41.772Z,55.81
2018-09-09T22:21:11.208Z,55.58
2018-09-09T22:23:40.736Z,55.51
2018-09-09T22:26:10.158Z,55.90
2018-09-09T22:28:39.589Z,56.47
2018-09-09T22:31:08.996Z,56.32
2018-09-09T22:33:38.431Z,55.88
2018-09-09T22:36:08.059Z,56.61
2018-09-09T22:38:37.479Z,57.08
2018-09-09T22:41:07.059Z,56.95
2018-09-09T22:43:36.516Z,57.62
2018-09-09T22:46:05.959Z,57.77
2018-09-09T22:48:35.383Z,57.63
2018-09-09T22:51:04.837Z,58.42
2018-09-09T22:53:34.318Z,58.47
2018-09-09T22:56:03.755Z,58.13
2018-09-09T22:58:33.150Z,58.77
2018-09-09T23:01:02.661Z,58.85
2018-09-09T23:03:32.055Z,59.07
2018-09-09T23:06:01.531Z,58.41
2018-09-09T23:08:30.958Z,58.28
2018-09-09T23:11:00.521Z,59.00
2018-09-09T23:13:29.928Z,59.23
2018-09-09T23:15:59.387Z,59.24
2018-09-09T23:18:28.815Z,59.03
2018-09-09T23:20:58.207Z,59.28
2018-09-09T23:23:27.628Z,59.77
2018-09-09T23:25:57.227Z,59.85
2018-09-09T23:28:26.603Z,59.64
2018-09-09T23:30:56.156Z,60.12
2018-09-09T23:33:25.546Z,60.60
2018-09-09T23:35:54.972Z,60.31
2018-09-09T23:38:24.362Z,60.54
2018-09-09T23:40:53.775Z,60.20
2018-09-09T23:43:23.194Z,60.35
2018-09-09T23:45:52.591Z,60.16
2018-09-09T23:48:22.035Z,60.31
2018-09-09T23:50:51.431Z,60.95
2018-09-09T23:53:20.844Z,60.93
2018-09-09T23:55:50.242Z,60.56
2018-09-09T23:58:19.772Z,61.08
